This is the latest recevied weather packets stored in our database for station/object KE5KUL-13. If no packets are shown the sender has not sent any weather packets the latest 10 day(s).
| Time | Temp. | Humidity | Pressure | Rain* | Wind** | Luminosity | Snow |
|---|---|---|---|---|---|---|---|
| 1777921517 | 31.11° C | 19% | 1009.8 hPa | 0 mm | - | - | - |
| 1777920918 | 31.11° C | 19% | 1009.9 hPa | 0 mm | - | - | - |
| 1777920318 | 31.67° C | 19% | 1010.3 hPa | 0 mm | - | - | - |
| 1777919719 | 31.11° C | 20% | 1010.6 hPa | 0 mm | - | - | - |
| 1777919118 | 31.67° C | 20% | 1011 hPa | 0 mm | - | - | - |
| 1777918519 | 31.11° C | 20% | 1011.1 hPa | 0 mm | - | - | - |
| 1777917918 | 31.11° C | 20% | 1011.4 hPa | 0 mm | - | - | - |
| 1777917318 | 31.11° C | 21% | 1011.6 hPa | 0 mm | - | - | - |
| 1777916718 | 31.11° C | 21% | 1011.5 hPa | 0 mm | - | - | - |
| 1777916118 | 31.11° C | 20% | 1011.6 hPa | 0 mm | - | - | - |
| 1777915518 | 30.56° C | 21% | 1011.8 hPa | 0 mm | - | - | - |
| 1777914918 | 30.56° C | 21% | 1011.9 hPa | 0 mm | - | - | - |
| 1777914318 | 30.56° C | 21% | 1012.1 hPa | 0 mm | - | - | - |
| 1777913718 | 31.11° C | 21% | 1012.4 hPa | 0 mm | - | - | - |
| 1777913118 | 30.56° C | 21% | 1012.4 hPa | 0 mm | - | - | - |
| 1777912518 | 30.56° C | 21% | 1012.6 hPa | 0 mm | - | - | - |
| 1777911918 | 30.56° C | 22% | 1012.7 hPa | 0 mm | - | - | - |
| 1777911318 | 30° C | 23% | 1012.8 hPa | 0 mm | - | - | - |
| 1777910718 | 28.89° C | 25% | 1012.6 hPa | 0 mm | - | - | - |
| 1777910118 | 28.33° C | 26% | 1012.7 hPa | 0 mm | - | - | - |
| 1777909518 | 27.22° C | 27% | 1012.4 hPa | 0 mm | - | - | - |
| 1777908918 | 26.67° C | 30% | 1012.6 hPa | 0 mm | - | - | - |
| 1777908318 | 26.11° C | 32% | 1012.5 hPa | 0 mm | - | - | - |
| 1777907718 | 25° C | 36% | 1012.5 hPa | 0 mm | - | - | - |
| 1777907118 | 23.89° C | 38% | 1012.1 hPa | 0 mm | - | - | - |
* Rain latest hour (hover to see other rain measurements)
** Current wind speed in m/s (hover to see current wind gust speed)